createdAt,value
2023-05-09T00:02:11.369Z,11.93
2023-05-09T00:05:15.655Z,15.07
2023-05-09T00:08:19.535Z,15.45
2023-05-09T00:11:23.075Z,14.05
2023-05-09T00:14:26.738Z,17.48
2023-05-09T00:17:31.625Z,14.55
2023-05-09T00:20:35.059Z,12.90
2023-05-09T00:23:39.114Z,16.15
2023-05-09T00:26:42.458Z,16.52
2023-05-09T00:29:45.991Z,17.40
2023-05-09T00:32:49.326Z,18.23
2023-05-09T00:35:52.707Z,20.17
2023-05-09T00:38:56.335Z,20.05
2023-05-09T00:41:59.756Z,16.02
2023-05-09T00:45:03.665Z,14.35
2023-05-09T00:48:07.846Z,25.17
2023-05-09T00:51:11.382Z,19.50
2023-05-09T00:54:14.869Z,18.48
2023-05-09T00:57:18.338Z,14.30
2023-05-09T01:00:22.315Z,18.17
2023-05-09T01:03:25.934Z,14.65
2023-05-09T01:07:03.145Z,13.55
2023-05-09T01:10:27.207Z,13.10
2023-05-09T01:13:39.400Z,15.10
2023-05-09T01:17:25.108Z,16.83
2023-05-09T01:21:04.659Z,13.48
2023-05-09T01:24:22.658Z,10.05
2023-05-09T01:27:50.427Z,16.73
2023-05-09T01:30:56.443Z,17.38
2023-05-09T01:34:03.715Z,11.65
2023-05-09T01:37:08.229Z,12.23
2023-05-09T01:40:17.658Z,13.52
2023-05-09T01:43:22.744Z,11.25
2023-05-09T01:46:28.258Z,9.68
2023-05-09T01:49:34.534Z,13.02
2023-05-09T01:52:40.870Z,8.68
2023-05-09T01:55:45.295Z,9.98
2023-05-09T01:58:50.814Z,15.57
2023-05-09T02:01:56.146Z,12.35
2023-05-09T02:05:07.125Z,11.18
2023-05-09T02:08:11.469Z,15.45
2023-05-09T02:11:14.958Z,15.50
2023-05-09T02:14:18.747Z,13.73
2023-05-09T02:17:22.345Z,16.17
2023-05-09T02:20:25.632Z,13.88
2023-05-09T02:23:29.004Z,22.35
2023-05-09T02:26:32.937Z,15.88
2023-05-09T02:29:41.608Z,13.48
2023-05-09T02:32:47.848Z,11.05
2023-05-09T02:35:53.190Z,17.45
2023-05-09T02:38:56.874Z,16.83
2023-05-09T02:42:12.367Z,18.13
2023-05-09T02:45:17.129Z,17.00
2023-05-09T02:48:26.249Z,14.13
2023-05-09T02:51:29.693Z,18.17
2023-05-09T02:54:33.200Z,18.67
2023-05-09T02:57:37.228Z,19.13
2023-05-09T03:00:40.847Z,17.05
2023-05-09T03:03:44.831Z,15.55
2023-05-09T03:07:04.394Z,16.30
2023-05-09T03:10:13.637Z,14.75
2023-05-09T03:13:24.387Z,19.95
2023-05-09T03:16:27.989Z,17.42
2023-05-09T03:19:32.285Z,18.67
2023-05-09T03:22:35.846Z,17.00
2023-05-09T03:25:44.879Z,17.60
2023-05-09T03:28:49.653Z,27.73
2023-05-09T03:31:56.038Z,16.02
2023-05-09T03:34:59.782Z,17.75
2023-05-09T03:38:06.596Z,17.55
2023-05-09T03:41:16.222Z,16.45
2023-05-09T03:44:24.727Z,20.10
2023-05-09T03:47:29.529Z,14.30
2023-05-09T03:50:38.730Z,15.98
2023-05-09T03:53:49.079Z,16.48
2023-05-09T03:56:55.792Z,20.92
2023-05-09T04:00:09.260Z,16.40
2023-05-09T04:03:24.724Z,19.17
2023-05-09T04:07:14.053Z,17.95
2023-05-09T04:10:21.903Z,19.52
2023-05-09T04:13:44.352Z,18.80
2023-05-09T04:17:27.065Z,22.00
2023-05-09T04:20:36.845Z,24.92
2023-05-09T04:23:44.449Z,27.58
2023-05-09T04:26:49.573Z,22.67
2023-05-09T04:29:58.841Z,27.35
2023-05-09T04:33:03.187Z,25.60
2023-05-09T04:36:11.652Z,21.13
2023-05-09T04:39:22.613Z,25.77
2023-05-09T04:42:35.865Z,17.92
2023-05-09T04:45:45.390Z,23.05
2023-05-09T04:48:51.040Z,22.75
2023-05-09T04:52:19.324Z,21.95
2023-05-09T04:55:22.785Z,21.58
2023-05-09T04:58:30.706Z,25.88
2023-05-09T05:01:34.999Z,23.15
2023-05-09T05:04:41.687Z,29.95
2023-05-09T05:08:00.003Z,19.55
2023-05-09T05:11:12.090Z,20.92
2023-05-09T05:14:15.801Z,24.55
2023-05-09T05:17:44.480Z,29.83
2023-05-09T05:20:51.352Z,21.45
2023-05-09T05:23:55.124Z,20.33
2023-05-09T05:27:07.590Z,25.17
2023-05-09T05:30:36.275Z,23.67
2023-05-09T05:33:39.729Z,20.67
2023-05-09T05:36:44.101Z,20.90
2023-05-09T05:39:48.267Z,20.30
2023-05-09T05:42:52.070Z,21.38
2023-05-09T05:45:56.692Z,25.08
2023-05-09T05:52:43.933Z,26.02
2023-05-09T05:55:51.577Z,22.63
2023-05-09T05:58:55.820Z,19.60
2023-05-09T06:01:59.685Z,25.27
2023-05-09T06:05:10.508Z,31.15
2023-05-09T06:08:14.434Z,25.05
2023-05-09T06:11:18.520Z,28.15
2023-05-09T06:14:26.133Z,28.00
2023-05-09T06:17:30.182Z,24.38
2023-05-09T06:20:36.876Z,29.05
2023-05-09T06:23:56.892Z,25.10
2023-05-09T06:27:11.827Z,27.00
2023-05-09T06:30:26.393Z,27.42
2023-05-09T06:33:32.265Z,23.13
2023-05-09T06:36:36.261Z,33.25
2023-05-09T06:39:40.849Z,30.85
2023-05-09T06:42:46.800Z,33.75
2023-05-09T06:45:51.487Z,25.80
2023-05-09T06:48:55.227Z,29.10
2023-05-09T06:51:58.906Z,27.73
2023-05-09T06:55:02.427Z,27.77
2023-05-09T06:58:05.751Z,26.50
2023-05-09T07:01:18.657Z,24.48
2023-05-09T07:04:22.114Z,37.88
2023-05-09T07:07:28.653Z,29.38
2023-05-09T07:19:44.785Z,31.20
2023-05-09T07:22:48.215Z,30.92
2023-05-09T07:25:58.280Z,28.13
2023-05-09T07:29:01.691Z,26.92
2023-05-09T07:32:29.895Z,30.73
2023-05-09T07:35:36.310Z,26.88
2023-05-09T07:39:05.611Z,26.13
2023-05-09T07:42:09.144Z,29.52
2023-05-09T07:45:12.798Z,37.17
2023-05-09T07:48:19.119Z,31.17
2023-05-09T07:51:25.392Z,28.58
2023-05-09T07:54:28.956Z,33.15
2023-05-09T07:57:32.459Z,27.30
2023-05-09T08:00:36.022Z,26.63
2023-05-09T08:03:39.482Z,30.42
2023-05-09T08:06:42.831Z,31.05
2023-05-09T08:09:46.366Z,31.30
2023-05-09T08:12:50.119Z,29.38
2023-05-09T08:15:54.083Z,35.90
2023-05-09T08:18:57.430Z,32.83
2023-05-09T08:22:25.363Z,27.23
2023-05-09T08:25:28.778Z,45.80
2023-05-09T08:28:32.276Z,29.27
2023-05-09T08:31:35.533Z,35.92
2023-05-09T08:34:38.952Z,32.00
2023-05-09T08:37:42.332Z,39.30
2023-05-09T08:40:45.923Z,33.10
2023-05-09T08:43:50.391Z,37.67
2023-05-09T08:47:03.026Z,40.50
2023-05-09T08:50:07.197Z,42.83
2023-05-09T08:53:15.384Z,34.90
2023-05-09T08:56:24.491Z,46.20
2023-05-09T08:59:29.002Z,36.45
2023-05-09T09:02:33.609Z,38.70
2023-05-09T09:05:43.442Z,35.30
2023-05-09T09:08:49.568Z,36.42
2023-05-09T09:11:54.198Z,40.05
2023-05-09T09:14:59.872Z,38.67
2023-05-09T09:18:13.724Z,34.78
2023-05-09T09:21:19.235Z,35.55
2023-05-09T09:24:27.574Z,37.83
2023-05-09T09:27:31.428Z,40.42
2023-05-09T09:30:34.823Z,34.63
2023-05-09T09:33:38.103Z,42.30
2023-05-09T09:36:41.345Z,38.83
2023-05-09T09:39:57.911Z,43.15
2023-05-09T09:43:01.176Z,45.78
2023-05-09T09:46:05.863Z,40.55
2023-05-09T09:49:15.297Z,41.05
2023-05-09T09:52:28.166Z,78.45
2023-05-09T09:55:32.490Z,48.75
2023-05-09T09:58:35.791Z,41.97
2023-05-09T10:01:59.689Z,36.63
2023-05-09T10:05:11.528Z,39.88
2023-05-09T10:08:15.955Z,40.45
2023-05-09T10:11:20.189Z,37.33
2023-05-09T10:14:29.156Z,42.38
2023-05-09T10:17:33.406Z,43.05
2023-05-09T10:20:40.027Z,42.03
2023-05-09T10:26:57.220Z,40.38
2023-05-09T10:30:12.006Z,55.00
2023-05-09T10:33:20.839Z,44.00
2023-05-09T10:36:27.496Z,49.90
2023-05-09T10:39:31.698Z,45.35
2023-05-09T10:42:35.294Z,46.53
2023-05-09T10:45:39.686Z,50.85
2023-05-09T10:48:43.891Z,49.33
2023-05-09T10:51:47.533Z,45.17
2023-05-09T10:55:05.797Z,41.30
2023-05-09T10:58:21.353Z,41.67
2023-05-09T11:01:39.955Z,42.58
2023-05-09T11:04:46.585Z,50.10
2023-05-09T11:08:19.681Z,44.80
2023-05-09T11:11:26.370Z,45.97
2023-05-09T11:17:39.992Z,47.45
2023-05-09T11:20:49.334Z,49.13
2023-05-09T11:23:55.129Z,51.97
2023-05-09T11:26:59.467Z,48.22
2023-05-09T11:30:10.105Z,54.00
2023-05-09T11:33:36.761Z,49.72
2023-05-09T11:36:48.807Z,69.38
2023-05-09T11:40:05.372Z,65.75
2023-05-09T11:43:10.009Z,61.15
2023-05-09T11:46:13.351Z,54.05
2023-05-09T11:49:18.429Z,60.67
2023-05-09T11:52:23.505Z,54.83
2023-05-09T11:55:30.646Z,56.13
2023-05-09T11:58:33.972Z,55.58
2023-05-09T12:01:37.558Z,57.05
2023-05-09T12:05:13.975Z,50.13
2023-05-09T12:08:17.552Z,55.90
2023-05-09T12:11:20.827Z,60.17
2023-05-09T12:14:28.991Z,58.72
2023-05-09T12:17:32.714Z,55.47
2023-05-09T12:20:51.033Z,54.13
2023-05-09T12:23:58.261Z,53.20
2023-05-09T12:27:01.772Z,51.70
2023-05-09T12:30:19.465Z,50.60
2023-05-09T12:33:23.136Z,47.17
2023-05-09T12:36:28.984Z,49.97
2023-05-09T12:39:32.660Z,52.63
2023-05-09T12:42:39.981Z,47.63
2023-05-09T12:45:54.371Z,52.28
2023-05-09T12:49:01.819Z,55.95
2023-05-09T12:52:24.181Z,49.72
2023-05-09T12:55:55.490Z,46.35
2023-05-09T12:58:58.807Z,50.67
2023-05-09T13:02:02.533Z,44.90
2023-05-09T13:05:27.642Z,52.65
2023-05-09T13:08:34.501Z,46.47
2023-05-09T13:14:43.947Z,51.50
2023-05-09T13:18:05.859Z,44.63
2023-05-09T13:21:09.219Z,42.58
2023-05-09T13:24:12.496Z,63.22
2023-05-09T13:27:15.785Z,47.60
2023-05-09T13:30:20.099Z,43.90
2023-05-09T13:33:26.549Z,48.60
2023-05-09T13:36:30.088Z,45.53
2023-05-09T13:39:33.476Z,55.15
2023-05-09T13:42:37.423Z,55.88
2023-05-09T13:45:40.734Z,59.45
2023-05-09T13:48:45.066Z,59.70
2023-05-09T13:51:49.338Z,56.35
2023-05-09T13:54:53.305Z,51.58
2023-05-09T13:57:56.586Z,45.00
2023-05-09T14:00:59.838Z,51.00
2023-05-09T14:04:03.467Z,51.88
2023-05-09T14:07:12.759Z,47.22
2023-05-09T14:10:40.682Z,54.80
2023-05-09T14:13:43.960Z,76.93
2023-05-09T14:16:47.403Z,90.38
2023-05-09T14:19:50.710Z,90.32
2023-05-09T14:22:55.773Z,84.57
2023-05-09T14:25:59.135Z,80.00
2023-05-09T14:29:03.839Z,93.45
2023-05-09T14:32:08.833Z,86.00
2023-05-09T14:35:12.180Z,90.72
2023-05-09T14:38:15.560Z,101.03
2023-05-09T14:41:21.313Z,89.40
2023-05-09T14:44:25.826Z,87.18
2023-05-09T14:47:29.346Z,109.25
2023-05-09T14:50:32.801Z,78.63
2023-05-09T14:53:40.476Z,84.13
2023-05-09T14:56:44.366Z,75.68
2023-05-09T14:59:50.177Z,79.38
2023-05-09T15:02:53.603Z,77.90
2023-05-09T15:05:56.980Z,79.05
2023-05-09T15:09:00.657Z,80.20
2023-05-09T15:12:03.988Z,79.03
2023-05-09T15:15:16.395Z,80.05
2023-05-09T15:18:23.978Z,75.05
2023-05-09T15:21:30.385Z,80.80
2023-05-09T15:24:33.694Z,71.95
2023-05-09T15:27:37.777Z,104.20
2023-05-09T15:30:42.266Z,74.22
2023-05-09T15:33:51.470Z,72.68
2023-05-09T15:36:54.737Z,69.13
2023-05-09T15:40:04.556Z,71.55
2023-05-09T15:43:08.641Z,67.50
2023-05-09T15:46:15.733Z,72.82
2023-05-09T15:49:19.482Z,71.18
2023-05-09T15:52:22.754Z,71.63
2023-05-09T15:55:28.532Z,78.90
2023-05-09T15:58:32.413Z,80.22
2023-05-09T16:01:35.723Z,83.00
2023-05-09T16:04:39.278Z,84.40
2023-05-09T16:07:46.553Z,79.13
2023-05-09T16:10:50.010Z,72.45
2023-05-09T16:13:53.318Z,70.50
2023-05-09T16:16:56.940Z,70.93
2023-05-09T16:20:00.720Z,70.93
2023-05-09T16:23:04.684Z,67.53
2023-05-09T16:26:08.222Z,64.32
2023-05-09T16:29:13.317Z,68.47
2023-05-09T16:32:16.876Z,63.95
2023-05-09T16:35:20.230Z,63.15
2023-05-09T16:38:27.103Z,68.32
2023-05-09T16:41:31.025Z,78.90
2023-05-09T16:44:34.400Z,64.85
2023-05-09T16:47:40.640Z,65.20
2023-05-09T16:50:45.710Z,67.53
2023-05-09T16:53:58.561Z,57.72
2023-05-09T16:57:27.226Z,57.78
2023-05-09T17:00:31.029Z,62.17
2023-05-09T17:03:34.917Z,71.50
2023-05-09T17:06:38.215Z,70.32
2023-05-09T17:09:41.576Z,64.97
2023-05-09T17:12:44.842Z,70.47
2023-05-09T17:15:48.161Z,75.90
2023-05-09T17:18:52.693Z,77.05
2023-05-09T17:21:56.769Z,70.55
2023-05-09T17:25:00.155Z,74.25
2023-05-09T17:28:03.636Z,72.55
2023-05-09T17:31:07.052Z,64.03
2023-05-09T17:34:10.391Z,67.05
2023-05-09T17:37:13.779Z,58.58
2023-05-09T17:40:42.400Z,56.60
2023-05-09T17:43:45.733Z,61.63
2023-05-09T17:46:51.379Z,58.78
2023-05-09T17:49:57.706Z,53.20
2023-05-09T17:53:01.220Z,52.22
2023-05-09T17:56:04.859Z,52.13
2023-05-09T17:59:08.718Z,52.50
2023-05-09T18:02:12.087Z,55.65
2023-05-09T18:05:15.401Z,58.90
2023-05-09T18:08:20.825Z,61.33
2023-05-09T18:11:25.199Z,57.63
2023-05-09T18:14:29.124Z,61.72
2023-05-09T18:17:32.551Z,59.67
2023-05-09T18:20:35.854Z,70.20
2023-05-09T18:24:04.837Z,77.65
2023-05-09T18:27:08.443Z,77.18
2023-05-09T18:30:12.253Z,78.28
2023-05-09T18:33:15.897Z,81.68
2023-05-09T18:36:23.170Z,73.43
2023-05-09T18:42:29.778Z,55.22
2023-05-09T18:45:34.888Z,64.75
2023-05-09T18:48:38.227Z,58.47
2023-05-09T18:51:41.797Z,49.92
2023-05-09T18:54:45.109Z,57.97
2023-05-09T18:57:49.607Z,60.70
2023-05-09T19:00:53.635Z,54.50
2023-05-09T19:03:56.951Z,50.63
2023-05-09T19:07:00.715Z,54.97
2023-05-09T19:10:05.328Z,51.63
2023-05-09T19:13:37.882Z,57.95
2023-05-09T19:16:41.414Z,55.05
2023-05-09T19:19:44.678Z,50.08
2023-05-09T19:22:53.798Z,56.00
2023-05-09T19:26:00.659Z,60.28
2023-05-09T19:29:12.842Z,53.97
2023-05-09T19:32:16.154Z,53.38
2023-05-09T19:35:19.667Z,57.33
2023-05-09T19:38:26.157Z,68.65
2023-05-09T19:41:32.808Z,62.42
2023-05-09T19:44:38.089Z,57.00
2023-05-09T19:47:42.178Z,61.38
2023-05-09T19:50:46.823Z,54.10
2023-05-09T19:53:53.670Z,61.80
2023-05-09T19:56:59.202Z,59.83
2023-05-09T20:00:02.569Z,53.58
2023-05-09T20:03:09.204Z,53.10
2023-05-09T20:06:16.489Z,58.20
2023-05-09T20:09:22.858Z,47.03
2023-05-09T20:12:26.850Z,54.17
2023-05-09T20:15:32.072Z,49.40
2023-05-09T20:18:35.669Z,49.72
2023-05-09T20:21:38.965Z,53.47
2023-05-09T20:24:42.325Z,55.85
2023-05-09T20:27:45.639Z,48.90
2023-05-09T20:30:51.366Z,50.00
2023-05-09T20:33:55.299Z,53.92
2023-05-09T20:36:58.706Z,55.80
2023-05-09T20:40:03.418Z,54.47
2023-05-09T20:43:10.185Z,51.50
2023-05-09T20:46:14.684Z,49.20
2023-05-09T20:49:21.066Z,49.00
2023-05-09T20:52:33.253Z,54.47
2023-05-09T20:55:36.973Z,51.80
2023-05-09T20:58:40.373Z,49.30
2023-05-09T21:01:44.643Z,48.58
2023-05-09T21:04:47.972Z,49.58
2023-05-09T21:07:51.411Z,54.85
2023-05-09T21:10:55.046Z,53.10
2023-05-09T21:13:58.514Z,58.85
2023-05-09T21:17:01.838Z,72.40
2023-05-09T21:20:05.516Z,53.17
2023-05-09T21:23:09.108Z,59.75
2023-05-09T21:26:12.383Z,60.88
2023-05-09T21:29:15.606Z,69.43
2023-05-09T21:32:18.949Z,64.38
2023-05-09T21:35:22.375Z,57.08
2023-05-09T21:38:25.701Z,69.25
2023-05-09T21:41:28.997Z,61.85
2023-05-09T21:44:32.436Z,62.00
2023-05-09T21:47:36.170Z,63.03
2023-05-09T21:50:39.568Z,65.90
2023-05-09T21:53:42.959Z,80.75
2023-05-09T21:56:46.266Z,63.70
2023-05-09T21:59:49.814Z,59.33
2023-05-09T22:02:53.138Z,66.03
2023-05-09T22:05:56.682Z,53.03
2023-05-09T22:08:59.947Z,57.25
2023-05-09T22:12:04.651Z,62.05
2023-05-09T22:15:09.348Z,74.30
2023-05-09T22:18:12.783Z,57.60
2023-05-09T22:21:16.145Z,73.78
2023-05-09T22:24:23.586Z,66.40
2023-05-09T22:27:26.917Z,70.93
2023-05-09T22:30:30.809Z,60.95
2023-05-09T22:33:35.264Z,69.18
2023-05-09T22:36:38.635Z,59.00
2023-05-09T22:39:42.044Z,75.95
2023-05-09T22:42:45.319Z,72.55
2023-05-09T22:45:51.673Z,78.47
2023-05-09T22:48:55.014Z,83.43
2023-05-09T22:51:58.523Z,68.78
2023-05-09T22:55:02.140Z,79.85
2023-05-09T22:58:09.102Z,72.22
2023-05-09T23:01:15.740Z,56.65
2023-05-09T23:04:19.324Z,64.38
2023-05-09T23:07:22.616Z,61.58
2023-05-09T23:10:26.108Z,57.83
2023-05-09T23:13:29.632Z,71.90
2023-05-09T23:16:33.107Z,60.53
2023-05-09T23:19:36.474Z,71.88
2023-05-09T23:22:43.886Z,75.55
2023-05-09T23:25:47.223Z,64.35
2023-05-09T23:28:55.919Z,81.78
2023-05-09T23:31:59.184Z,78.97
2023-05-09T23:35:07.256Z,63.65
2023-05-09T23:38:16.778Z,63.47
2023-05-09T23:41:26.511Z,68.50
2023-05-09T23:44:30.815Z,75.65
2023-05-09T23:51:57.972Z,80.72
2023-05-09T23:55:01.325Z,73.07
2023-05-09T23:58:32.582Z,69.57
